sensor_id;sensor_type;location;lat;lon;timestamp;temperature;humidity
17236;DHT22;8734;59.272;17.780;2023-05-10T00:01:39;8.90;99.90
17236;DHT22;8734;59.272;17.780;2023-05-10T00:04:08;8.90;99.90
17236;DHT22;8734;59.272;17.780;2023-05-10T00:06:36;8.80;99.90
17236;DHT22;8734;59.272;17.780;2023-05-10T00:09:04;8.80;99.90
17236;DHT22;8734;59.272;17.780;2023-05-10T00:11:34;8.70;99.90
17236;DHT22;8734;59.272;17.780;2023-05-10T00:14:02;8.70;99.90
17236;DHT22;8734;59.272;17.780;2023-05-10T00:16:31;8.70;99.90
17236;DHT22;8734;59.272;17.780;2023-05-10T00:18:59;8.70;99.90
17236;DHT22;8734;59.272;17.780;2023-05-10T00:21:27;8.60;99.90
17236;DHT22;8734;59.272;17.780;2023-05-10T00:23:56;8.60;99.90
17236;DHT22;8734;59.272;17.780;2023-05-10T00:26:24;8.50;99.90
17236;DHT22;8734;59.272;17.780;2023-05-10T00:28:54;8.40;99.90
17236;DHT22;8734;59.272;17.780;2023-05-10T00:31:22;8.40;99.90
17236;DHT22;8734;59.272;17.780;2023-05-10T00:33:50;8.30;99.90
17236;DHT22;8734;59.272;17.780;2023-05-10T00:36:19;8.30;99.90
17236;DHT22;8734;59.272;17.780;2023-05-10T00:38:47;8.20;99.90
17236;DHT22;8734;59.272;17.780;2023-05-10T00:41:16;8.20;99.90
17236;DHT22;8734;59.272;17.780;2023-05-10T00:43:44;8.20;99.90
17236;DHT22;8734;59.272;17.780;2023-05-10T00:46:14;8.20;99.90
17236;DHT22;8734;59.272;17.780;2023-05-10T00:48:44;8.10;99.90
17236;DHT22;8734;59.272;17.780;2023-05-10T00:51:13;8.00;99.90
17236;DHT22;8734;59.272;17.780;2023-05-10T00:53:42;8.00;99.90
17236;DHT22;8734;59.272;17.780;2023-05-10T00:56:11;8.00;99.90
17236;DHT22;8734;59.272;17.780;2023-05-10T00:58:40;8.00;99.90
17236;DHT22;8734;59.272;17.780;2023-05-10T01:01:09;8.00;99.90
17236;DHT22;8734;59.272;17.780;2023-05-10T01:03:39;8.00;99.90
17236;DHT22;8734;59.272;17.780;2023-05-10T01:06:08;7.90;99.90
17236;DHT22;8734;59.272;17.780;2023-05-10T01:08:38;7.90;99.90
17236;DHT22;8734;59.272;17.780;2023-05-10T01:11:07;7.80;99.90
17236;DHT22;8734;59.272;17.780;2023-05-10T01:13:37;7.80;99.90
17236;DHT22;8734;59.272;17.780;2023-05-10T01:16:06;7.70;99.90
17236;DHT22;8734;59.272;17.780;2023-05-10T01:18:40;7.70;99.90
17236;DHT22;8734;59.272;17.780;2023-05-10T01:21:19;7.60;99.90
17236;DHT22;8734;59.272;17.780;2023-05-10T01:24:09;7.60;99.90
17236;DHT22;8734;59.272;17.780;2023-05-10T01:27:07;7.50;99.90
17236;DHT22;8734;59.272;17.780;2023-05-10T01:32:57;7.40;99.90
17236;DHT22;8734;59.272;17.780;2023-05-10T01:35:35;7.40;99.90
17236;DHT22;8734;59.272;17.780;2023-05-10T01:38:11;7.30;99.90
17236;DHT22;8734;59.272;17.780;2023-05-10T01:40:46;7.30;99.90
17236;DHT22;8734;59.272;17.780;2023-05-10T01:43:19;7.20;99.90
17236;DHT22;8734;59.272;17.780;2023-05-10T01:45:58;7.20;99.90
17236;DHT22;8734;59.272;17.780;2023-05-10T01:48:30;7.10;99.90
17236;DHT22;8734;59.272;17.780;2023-05-10T01:50:59;7.00;99.90
17236;DHT22;8734;59.272;17.780;2023-05-10T01:53:28;7.00;99.90
17236;DHT22;8734;59.272;17.780;2023-05-10T01:55:57;7.00;99.90
17236;DHT22;8734;59.272;17.780;2023-05-10T01:58:29;6.90;99.90
17236;DHT22;8734;59.272;17.780;2023-05-10T02:01:00;6.80;99.90
17236;DHT22;8734;59.272;17.780;2023-05-10T02:03:31;6.80;99.90
17236;DHT22;8734;59.272;17.780;2023-05-10T02:06:02;6.70;99.90
17236;DHT22;8734;59.272;17.780;2023-05-10T02:08:31;6.70;99.90
17236;DHT22;8734;59.272;17.780;2023-05-10T02:10:59;6.50;99.90
17236;DHT22;8734;59.272;17.780;2023-05-10T02:13:29;6.40;99.90
17236;DHT22;8734;59.272;17.780;2023-05-10T02:16:00;6.40;99.90
17236;DHT22;8734;59.272;17.780;2023-05-10T02:18:32;6.50;99.90
17236;DHT22;8734;59.272;17.780;2023-05-10T02:21:02;6.50;99.90
17236;DHT22;8734;59.272;17.780;2023-05-10T02:23:31;6.50;99.90
17236;DHT22;8734;59.272;17.780;2023-05-10T02:26:00;6.60;99.90
17236;DHT22;8734;59.272;17.780;2023-05-10T02:28:29;6.60;99.90
17236;DHT22;8734;59.272;17.780;2023-05-10T02:30:58;6.50;99.90
17236;DHT22;8734;59.272;17.780;2023-05-10T02:33:29;6.40;99.90
17236;DHT22;8734;59.272;17.780;2023-05-10T02:36:01;6.30;99.90
17236;DHT22;8734;59.272;17.780;2023-05-10T02:38:31;6.20;99.90
17236;DHT22;8734;59.272;17.780;2023-05-10T02:41:01;6.10;99.90
17236;DHT22;8734;59.272;17.780;2023-05-10T02:43:31;6.00;99.90
17236;DHT22;8734;59.272;17.780;2023-05-10T02:46:00;5.90;99.90
17236;DHT22;8734;59.272;17.780;2023-05-10T02:48:30;5.80;99.90
17236;DHT22;8734;59.272;17.780;2023-05-10T02:51:05;5.70;99.90
17236;DHT22;8734;59.272;17.780;2023-05-10T02:53:36;5.60;99.90
17236;DHT22;8734;59.272;17.780;2023-05-10T02:56:11;5.60;99.90
17236;DHT22;8734;59.272;17.780;2023-05-10T02:58:41;5.60;99.90
17236;DHT22;8734;59.272;17.780;2023-05-10T03:01:09;5.60;99.90
17236;DHT22;8734;59.272;17.780;2023-05-10T03:03:39;5.60;99.90
17236;DHT22;8734;59.272;17.780;2023-05-10T03:06:07;5.60;99.90
17236;DHT22;8734;59.272;17.780;2023-05-10T03:08:36;5.60;99.90
17236;DHT22;8734;59.272;17.780;2023-05-10T03:11:25;5.60;99.90
17236;DHT22;8734;59.272;17.780;2023-05-10T03:14:04;5.60;99.90
17236;DHT22;8734;59.272;17.780;2023-05-10T03:16:40;5.60;99.90
17236;DHT22;8734;59.272;17.780;2023-05-10T03:19:17;5.70;99.90
17236;DHT22;8734;59.272;17.780;2023-05-10T03:21:50;5.70;99.90
17236;DHT22;8734;59.272;17.780;2023-05-10T03:24:22;5.80;99.90
17236;DHT22;8734;59.272;17.780;2023-05-10T03:26:53;5.80;99.90
17236;DHT22;8734;59.272;17.780;2023-05-10T03:29:25;5.90;99.90
17236;DHT22;8734;59.272;17.780;2023-05-10T03:31:54;5.90;99.90
17236;DHT22;8734;59.272;17.780;2023-05-10T03:34:25;6.00;99.90
17236;DHT22;8734;59.272;17.780;2023-05-10T03:36:53;6.10;99.90
17236;DHT22;8734;59.272;17.780;2023-05-10T03:39:21;6.20;99.90
17236;DHT22;8734;59.272;17.780;2023-05-10T03:41:50;6.30;99.90
17236;DHT22;8734;59.272;17.780;2023-05-10T03:44:18;6.50;99.90
17236;DHT22;8734;59.272;17.780;2023-05-10T03:46:46;6.60;99.90
17236;DHT22;8734;59.272;17.780;2023-05-10T03:49:15;6.60;99.90
17236;DHT22;8734;59.272;17.780;2023-05-10T03:51:44;6.60;99.90
17236;DHT22;8734;59.272;17.780;2023-05-10T03:54:13;6.80;99.90
17236;DHT22;8734;59.272;17.780;2023-05-10T03:56:41;6.90;99.90
17236;DHT22;8734;59.272;17.780;2023-05-10T03:59:10;6.90;99.90
17236;DHT22;8734;59.272;17.780;2023-05-10T04:01:38;7.00;99.90
17236;DHT22;8734;59.272;17.780;2023-05-10T04:04:06;7.20;99.90
17236;DHT22;8734;59.272;17.780;2023-05-10T04:06:34;7.40;99.90
17236;DHT22;8734;59.272;17.780;2023-05-10T04:09:04;7.40;99.90
17236;DHT22;8734;59.272;17.780;2023-05-10T04:11:33;7.50;99.90
17236;DHT22;8734;59.272;17.780;2023-05-10T04:14:01;7.70;99.90
17236;DHT22;8734;59.272;17.780;2023-05-10T04:16:29;7.80;99.90
17236;DHT22;8734;59.272;17.780;2023-05-10T04:18:58;7.90;99.90
17236;DHT22;8734;59.272;17.780;2023-05-10T04:21:26;8.10;99.90
17236;DHT22;8734;59.272;17.780;2023-05-10T04:23:55;8.20;99.90
17236;DHT22;8734;59.272;17.780;2023-05-10T04:26:24;8.30;99.90
17236;DHT22;8734;59.272;17.780;2023-05-10T04:28:52;8.50;99.90
17236;DHT22;8734;59.272;17.780;2023-05-10T04:31:21;8.60;99.90
17236;DHT22;8734;59.272;17.780;2023-05-10T04:33:51;8.70;99.90
17236;DHT22;8734;59.272;17.780;2023-05-10T04:36:19;8.70;99.90
17236;DHT22;8734;59.272;17.780;2023-05-10T04:38:47;8.80;99.90
17236;DHT22;8734;59.272;17.780;2023-05-10T04:41:16;9.00;99.90
17236;DHT22;8734;59.272;17.780;2023-05-10T04:43:45;9.10;99.90
17236;DHT22;8734;59.272;17.780;2023-05-10T04:46:15;9.30;99.90
17236;DHT22;8734;59.272;17.780;2023-05-10T04:48:44;9.40;99.90
17236;DHT22;8734;59.272;17.780;2023-05-10T04:51:12;9.50;99.90
17236;DHT22;8734;59.272;17.780;2023-05-10T04:53:40;9.60;99.90
17236;DHT22;8734;59.272;17.780;2023-05-10T04:56:16;9.70;99.90
17236;DHT22;8734;59.272;17.780;2023-05-10T04:58:46;9.70;99.90
17236;DHT22;8734;59.272;17.780;2023-05-10T05:01:14;9.80;99.90
17236;DHT22;8734;59.272;17.780;2023-05-10T05:03:43;9.90;99.90
17236;DHT22;8734;59.272;17.780;2023-05-10T05:06:11;10.00;99.90
17236;DHT22;8734;59.272;17.780;2023-05-10T05:08:39;10.00;99.90
17236;DHT22;8734;59.272;17.780;2023-05-10T05:11:08;10.10;99.90
17236;DHT22;8734;59.272;17.780;2023-05-10T05:13:36;10.20;99.90
17236;DHT22;8734;59.272;17.780;2023-05-10T05:16:07;10.20;99.90
17236;DHT22;8734;59.272;17.780;2023-05-10T05:18:35;10.20;99.90
17236;DHT22;8734;59.272;17.780;2023-05-10T05:21:03;10.30;99.90
17236;DHT22;8734;59.272;17.780;2023-05-10T05:23:41;10.30;99.90
17236;DHT22;8734;59.272;17.780;2023-05-10T05:26:09;10.40;99.90
17236;DHT22;8734;59.272;17.780;2023-05-10T05:28:37;10.40;99.90
17236;DHT22;8734;59.272;17.780;2023-05-10T05:31:07;10.60;99.90
17236;DHT22;8734;59.272;17.780;2023-05-10T05:33:36;10.70;99.90
17236;DHT22;8734;59.272;17.780;2023-05-10T05:36:05;10.80;99.90
17236;DHT22;8734;59.272;17.780;2023-05-10T05:38:33;10.80;99.90
17236;DHT22;8734;59.272;17.780;2023-05-10T05:41:02;10.90;99.90
17236;DHT22;8734;59.272;17.780;2023-05-10T05:43:30;11.00;99.90
17236;DHT22;8734;59.272;17.780;2023-05-10T05:45:58;11.10;99.90
17236;DHT22;8734;59.272;17.780;2023-05-10T05:48:29;11.10;99.90
17236;DHT22;8734;59.272;17.780;2023-05-10T05:50:58;11.20;99.90
17236;DHT22;8734;59.272;17.780;2023-05-10T05:53:26;11.20;99.90
17236;DHT22;8734;59.272;17.780;2023-05-10T05:55:56;11.40;99.90
17236;DHT22;8734;59.272;17.780;2023-05-10T05:58:25;11.40;99.90
17236;DHT22;8734;59.272;17.780;2023-05-10T06:00:53;11.40;99.90
17236;DHT22;8734;59.272;17.780;2023-05-10T06:03:22;11.50;99.90
17236;DHT22;8734;59.272;17.780;2023-05-10T06:05:52;11.60;99.90
17236;DHT22;8734;59.272;17.780;2023-05-10T06:08:20;11.60;99.90
17236;DHT22;8734;59.272;17.780;2023-05-10T06:10:48;11.70;99.90
17236;DHT22;8734;59.272;17.780;2023-05-10T06:13:16;11.80;99.90
17236;DHT22;8734;59.272;17.780;2023-05-10T06:15:45;11.80;99.90
17236;DHT22;8734;59.272;17.780;2023-05-10T06:18:13;11.90;99.90
17236;DHT22;8734;59.272;17.780;2023-05-10T06:20:41;12.10;99.90
17236;DHT22;8734;59.272;17.780;2023-05-10T06:23:11;12.10;99.90
17236;DHT22;8734;59.272;17.780;2023-05-10T06:25:40;12.20;99.90
17236;DHT22;8734;59.272;17.780;2023-05-10T06:28:08;12.20;99.90
17236;DHT22;8734;59.272;17.780;2023-05-10T06:30:37;12.30;99.90
17236;DHT22;8734;59.272;17.780;2023-05-10T06:33:05;12.40;99.90
17236;DHT22;8734;59.272;17.780;2023-05-10T06:35:33;12.50;99.90
17236;DHT22;8734;59.272;17.780;2023-05-10T06:38:02;12.60;99.90
17236;DHT22;8734;59.272;17.780;2023-05-10T06:40:31;12.80;99.90
17236;DHT22;8734;59.272;17.780;2023-05-10T06:43:00;13.00;99.90
17236;DHT22;8734;59.272;17.780;2023-05-10T06:45:28;13.10;99.90
17236;DHT22;8734;59.272;17.780;2023-05-10T06:47:56;13.20;99.90
17236;DHT22;8734;59.272;17.780;2023-05-10T06:50:24;13.30;99.90
17236;DHT22;8734;59.272;17.780;2023-05-10T06:52:53;13.40;99.90
17236;DHT22;8734;59.272;17.780;2023-05-10T06:55:22;13.80;99.90
17236;DHT22;8734;59.272;17.780;2023-05-10T06:57:52;14.10;99.90
17236;DHT22;8734;59.272;17.780;2023-05-10T07:00:20;14.30;99.90
17236;DHT22;8734;59.272;17.780;2023-05-10T07:02:49;14.40;99.90
17236;DHT22;8734;59.272;17.780;2023-05-10T07:05:18;14.60;99.90
17236;DHT22;8734;59.272;17.780;2023-05-10T07:07:47;14.70;99.90
17236;DHT22;8734;59.272;17.780;2023-05-10T07:10:16;14.70;99.90
17236;DHT22;8734;59.272;17.780;2023-05-10T07:12:44;14.80;99.90
17236;DHT22;8734;59.272;17.780;2023-05-10T07:15:14;14.90;99.90
17236;DHT22;8734;59.272;17.780;2023-05-10T07:17:43;15.10;99.90
17236;DHT22;8734;59.272;17.780;2023-05-10T07:20:12;15.30;99.90
17236;DHT22;8734;59.272;17.780;2023-05-10T07:22:41;15.60;99.90
17236;DHT22;8734;59.272;17.780;2023-05-10T07:25:10;15.90;99.90
17236;DHT22;8734;59.272;17.780;2023-05-10T07:27:38;16.20;99.90
17236;DHT22;8734;59.272;17.780;2023-05-10T07:30:07;16.40;99.90
17236;DHT22;8734;59.272;17.780;2023-05-10T07:32:37;16.50;99.90
17236;DHT22;8734;59.272;17.780;2023-05-10T07:35:07;16.70;99.90
17236;DHT22;8734;59.272;17.780;2023-05-10T07:37:35;17.10;99.90
17236;DHT22;8734;59.272;17.780;2023-05-10T07:40:04;17.20;99.90
17236;DHT22;8734;59.272;17.780;2023-05-10T07:42:33;17.50;99.90
17236;DHT22;8734;59.272;17.780;2023-05-10T07:45:01;17.90;99.90
17236;DHT22;8734;59.272;17.780;2023-05-10T07:47:30;17.60;99.90
17236;DHT22;8734;59.272;17.780;2023-05-10T07:49:59;17.70;99.90
17236;DHT22;8734;59.272;17.780;2023-05-10T07:52:27;17.90;99.90
17236;DHT22;8734;59.272;17.780;2023-05-10T07:54:56;18.10;99.90
17236;DHT22;8734;59.272;17.780;2023-05-10T07:57:24;18.00;99.90
17236;DHT22;8734;59.272;17.780;2023-05-10T07:59:52;17.90;99.90
17236;DHT22;8734;59.272;17.780;2023-05-10T08:02:21;18.10;99.90
17236;DHT22;8734;59.272;17.780;2023-05-10T08:04:49;18.20;99.90
17236;DHT22;8734;59.272;17.780;2023-05-10T08:07:19;18.50;99.90
17236;DHT22;8734;59.272;17.780;2023-05-10T08:09:47;18.10;99.90
17236;DHT22;8734;59.272;17.780;2023-05-10T08:12:15;18.20;99.90
17236;DHT22;8734;59.272;17.780;2023-05-10T08:14:43;18.80;99.90
17236;DHT22;8734;59.272;17.780;2023-05-10T08:17:12;18.70;99.90
17236;DHT22;8734;59.272;17.780;2023-05-10T08:19:40;18.90;99.90
17236;DHT22;8734;59.272;17.780;2023-05-10T08:22:08;19.00;99.90
17236;DHT22;8734;59.272;17.780;2023-05-10T08:24:38;19.30;99.90
17236;DHT22;8734;59.272;17.780;2023-05-10T08:27:09;19.10;99.40
17236;DHT22;8734;59.272;17.780;2023-05-10T08:29:37;18.60;99.80
17236;DHT22;8734;59.272;17.780;2023-05-10T08:32:16;18.90;99.90
17236;DHT22;8734;59.272;17.780;2023-05-10T08:34:44;19.20;98.40
17236;DHT22;8734;59.272;17.780;2023-05-10T08:37:13;19.00;99.00
17236;DHT22;8734;59.272;17.780;2023-05-10T08:39:42;19.30;98.60
17236;DHT22;8734;59.272;17.780;2023-05-10T08:42:12;19.30;97.50
17236;DHT22;8734;59.272;17.780;2023-05-10T08:44:43;18.90;95.80
17236;DHT22;8734;59.272;17.780;2023-05-10T08:47:16;18.60;96.30
17236;DHT22;8734;59.272;17.780;2023-05-10T08:49:47;18.80;96.30
17236;DHT22;8734;59.272;17.780;2023-05-10T08:52:16;19.10;97.10
17236;DHT22;8734;59.272;17.780;2023-05-10T08:54:47;19.40;95.50
17236;DHT22;8734;59.272;17.780;2023-05-10T08:57:15;19.20;95.10
17236;DHT22;8734;59.272;17.780;2023-05-10T08:59:43;19.00;94.10
17236;DHT22;8734;59.272;17.780;2023-05-10T09:02:13;18.70;95.10
17236;DHT22;8734;59.272;17.780;2023-05-10T09:04:44;18.80;94.00
17236;DHT22;8734;59.272;17.780;2023-05-10T09:07:13;18.70;93.70
17236;DHT22;8734;59.272;17.780;2023-05-10T09:09:41;18.70;92.40
17236;DHT22;8734;59.272;17.780;2023-05-10T09:12:12;18.80;92.80
17236;DHT22;8734;59.272;17.780;2023-05-10T09:14:43;18.80;92.10
17236;DHT22;8734;59.272;17.780;2023-05-10T09:17:12;18.70;92.10
17236;DHT22;8734;59.272;17.780;2023-05-10T09:19:41;18.60;92.80
17236;DHT22;8734;59.272;17.780;2023-05-10T09:22:10;18.60;91.10
17236;DHT22;8734;59.272;17.780;2023-05-10T09:24:38;18.60;92.00
17236;DHT22;8734;59.272;17.780;2023-05-10T09:27:12;18.70;92.10
17236;DHT22;8734;59.272;17.780;2023-05-10T09:29:42;19.10;91.00
17236;DHT22;8734;59.272;17.780;2023-05-10T09:32:10;19.50;90.90
17236;DHT22;8734;59.272;17.780;2023-05-10T09:34:39;19.20;89.40
17236;DHT22;8734;59.272;17.780;2023-05-10T09:37:09;19.10;88.70
17236;DHT22;8734;59.272;17.780;2023-05-10T09:39:37;19.00;89.20
17236;DHT22;8734;59.272;17.780;2023-05-10T09:42:07;18.80;89.40
17236;DHT22;8734;59.272;17.780;2023-05-10T09:44:37;18.60;89.60
17236;DHT22;8734;59.272;17.780;2023-05-10T09:47:07;18.50;88.60
17236;DHT22;8734;59.272;17.780;2023-05-10T09:49:36;18.60;87.00
17236;DHT22;8734;59.272;17.780;2023-05-10T09:52:05;18.40;89.10
17236;DHT22;8734;59.272;17.780;2023-05-10T09:54:34;18.40;87.30
17236;DHT22;8734;59.272;17.780;2023-05-10T09:57:02;18.60;88.40
17236;DHT22;8734;59.272;17.780;2023-05-10T09:59:33;18.60;87.60
17236;DHT22;8734;59.272;17.780;2023-05-10T10:02:03;18.80;91.30
17236;DHT22;8734;59.272;17.780;2023-05-10T10:04:31;19.30;90.50
17236;DHT22;8734;59.272;17.780;2023-05-10T10:07:01;19.20;84.90
17236;DHT22;8734;59.272;17.780;2023-05-10T10:09:31;19.30;86.50
17236;DHT22;8734;59.272;17.780;2023-05-10T10:11:59;19.30;85.00
17236;DHT22;8734;59.272;17.780;2023-05-10T10:14:28;19.30;84.10
17236;DHT22;8734;59.272;17.780;2023-05-10T10:16:57;19.50;86.40
17236;DHT22;8734;59.272;17.780;2023-05-10T10:19:33;19.70;84.10
17236;DHT22;8734;59.272;17.780;2023-05-10T10:22:02;19.60;82.20
17236;DHT22;8734;59.272;17.780;2023-05-10T10:24:31;19.50;86.00
17236;DHT22;8734;59.272;17.780;2023-05-10T10:27:07;19.80;85.80
17236;DHT22;8734;59.272;17.780;2023-05-10T10:29:41;19.70;83.50
17236;DHT22;8734;59.272;17.780;2023-05-10T10:32:20;19.40;82.60
17236;DHT22;8734;59.272;17.780;2023-05-10T10:34:52;19.10;82.00
17236;DHT22;8734;59.272;17.780;2023-05-10T10:37:22;19.10;83.00
17236;DHT22;8734;59.272;17.780;2023-05-10T10:39:50;19.40;84.00
17236;DHT22;8734;59.272;17.780;2023-05-10T10:42:45;19.40;80.80
17236;DHT22;8734;59.272;17.780;2023-05-10T10:45:14;19.50;81.60
17236;DHT22;8734;59.272;17.780;2023-05-10T10:47:42;19.70;81.70
17236;DHT22;8734;59.272;17.780;2023-05-10T10:50:13;19.60;80.60
17236;DHT22;8734;59.272;17.780;2023-05-10T10:52:43;19.50;82.30
17236;DHT22;8734;59.272;17.780;2023-05-10T10:55:13;19.80;83.50
17236;DHT22;8734;59.272;17.780;2023-05-10T10:57:47;20.10;81.40
17236;DHT22;8734;59.272;17.780;2023-05-10T11:00:35;19.80;81.30
17236;DHT22;8734;59.272;17.780;2023-05-10T11:03:04;19.60;80.10
17236;DHT22;8734;59.272;17.780;2023-05-10T11:05:42;19.30;81.70
17236;DHT22;8734;59.272;17.780;2023-05-10T11:08:14;19.30;82.60
17236;DHT22;8734;59.272;17.780;2023-05-10T11:13:38;19.60;82.60
17236;DHT22;8734;59.272;17.780;2023-05-10T11:16:12;19.60;80.30
17236;DHT22;8734;59.272;17.780;2023-05-10T11:18:41;19.20;77.40
17236;DHT22;8734;59.272;17.780;2023-05-10T11:21:21;18.70;80.50
17236;DHT22;8734;59.272;17.780;2023-05-10T11:23:50;18.60;80.80
17236;DHT22;8734;59.272;17.780;2023-05-10T11:26:19;18.90;79.80
17236;DHT22;8734;59.272;17.780;2023-05-10T11:28:50;19.00;80.30
17236;DHT22;8734;59.272;17.780;2023-05-10T11:31:19;18.90;79.60
17236;DHT22;8734;59.272;17.780;2023-05-10T11:33:49;18.80;79.10
17236;DHT22;8734;59.272;17.780;2023-05-10T11:36:20;18.50;79.40
17236;DHT22;8734;59.272;17.780;2023-05-10T11:38:49;18.90;81.00
17236;DHT22;8734;59.272;17.780;2023-05-10T11:41:18;19.20;81.40
17236;DHT22;8734;59.272;17.780;2023-05-10T11:43:50;19.30;79.00
17236;DHT22;8734;59.272;17.780;2023-05-10T11:46:19;19.30;80.40
17236;DHT22;8734;59.272;17.780;2023-05-10T11:48:50;19.10;80.70
17236;DHT22;8734;59.272;17.780;2023-05-10T11:51:22;19.40;82.70
17236;DHT22;8734;59.272;17.780;2023-05-10T11:53:53;19.50;78.50
17236;DHT22;8734;59.272;17.780;2023-05-10T11:56:21;19.10;79.80
17236;DHT22;8734;59.272;17.780;2023-05-10T11:58:53;19.00;80.60
17236;DHT22;8734;59.272;17.780;2023-05-10T12:01:23;18.90;78.10
17236;DHT22;8734;59.272;17.780;2023-05-10T12:03:53;19.00;78.40
17236;DHT22;8734;59.272;17.780;2023-05-10T12:06:26;18.80;79.10
17236;DHT22;8734;59.272;17.780;2023-05-10T12:08:55;18.70;79.60
17236;DHT22;8734;59.272;17.780;2023-05-10T12:11:25;18.60;79.10
17236;DHT22;8734;59.272;17.780;2023-05-10T12:13:55;18.50;79.80
17236;DHT22;8734;59.272;17.780;2023-05-10T12:16:25;18.30;79.90
17236;DHT22;8734;59.272;17.780;2023-05-10T12:18:55;18.20;80.80
17236;DHT22;8734;59.272;17.780;2023-05-10T12:21:27;18.40;81.10
17236;DHT22;8734;59.272;17.780;2023-05-10T12:23:59;18.40;81.90
17236;DHT22;8734;59.272;17.780;2023-05-10T12:26:28;18.20;80.10
17236;DHT22;8734;59.272;17.780;2023-05-10T12:29:12;18.20;81.60
17236;DHT22;8734;59.272;17.780;2023-05-10T12:31:51;18.50;81.10
17236;DHT22;8734;59.272;17.780;2023-05-10T12:34:24;18.40;83.90
17236;DHT22;8734;59.272;17.780;2023-05-10T12:36:55;18.30;80.50
17236;DHT22;8734;59.272;17.780;2023-05-10T12:39:23;18.50;81.60
17236;DHT22;8734;59.272;17.780;2023-05-10T12:41:52;18.20;82.10
17236;DHT22;8734;59.272;17.780;2023-05-10T12:44:20;18.00;81.20
17236;DHT22;8734;59.272;17.780;2023-05-10T12:46:48;18.20;80.60
17236;DHT22;8734;59.272;17.780;2023-05-10T12:49:16;18.00;78.40
17236;DHT22;8734;59.272;17.780;2023-05-10T12:51:46;17.90;82.20
17236;DHT22;8734;59.272;17.780;2023-05-10T12:54:16;17.80;79.00
17236;DHT22;8734;59.272;17.780;2023-05-10T12:56:44;17.70;76.80
17236;DHT22;8734;59.272;17.780;2023-05-10T12:59:12;17.80;76.30
17236;DHT22;8734;59.272;17.780;2023-05-10T13:01:40;17.90;77.10
17236;DHT22;8734;59.272;17.780;2023-05-10T13:04:09;17.80;74.30
17236;DHT22;8734;59.272;17.780;2023-05-10T13:06:37;17.60;76.90
17236;DHT22;8734;59.272;17.780;2023-05-10T13:09:06;17.70;76.10
17236;DHT22;8734;59.272;17.780;2023-05-10T13:11:35;17.50;78.30
17236;DHT22;8734;59.272;17.780;2023-05-10T13:14:04;17.40;77.60
17236;DHT22;8734;59.272;17.780;2023-05-10T13:16:32;17.30;77.20
17236;DHT22;8734;59.272;17.780;2023-05-10T13:19:01;17.40;76.30
17236;DHT22;8734;59.272;17.780;2023-05-10T13:21:29;17.30;79.10
17236;DHT22;8734;59.272;17.780;2023-05-10T13:23:58;17.30;80.70
17236;DHT22;8734;59.272;17.780;2023-05-10T13:26:27;17.30;79.10
17236;DHT22;8734;59.272;17.780;2023-05-10T13:28:56;17.30;80.60
17236;DHT22;8734;59.272;17.780;2023-05-10T13:31:25;17.30;81.40
17236;DHT22;8734;59.272;17.780;2023-05-10T13:33:53;17.40;84.00
17236;DHT22;8734;59.272;17.780;2023-05-10T13:36:21;17.40;81.20
17236;DHT22;8734;59.272;17.780;2023-05-10T13:38:50;17.20;81.90
17236;DHT22;8734;59.272;17.780;2023-05-10T13:41:18;17.30;81.60
17236;DHT22;8734;59.272;17.780;2023-05-10T13:43:46;17.10;81.60
17236;DHT22;8734;59.272;17.780;2023-05-10T13:46:17;16.90;81.80
17236;DHT22;8734;59.272;17.780;2023-05-10T13:48:46;16.90;83.00
17236;DHT22;8734;59.272;17.780;2023-05-10T13:51:14;16.90;82.50
17236;DHT22;8734;59.272;17.780;2023-05-10T13:53:42;16.80;83.20
17236;DHT22;8734;59.272;17.780;2023-05-10T13:56:11;16.70;83.00
17236;DHT22;8734;59.272;17.780;2023-05-10T13:58:39;16.90;84.60
17236;DHT22;8734;59.272;17.780;2023-05-10T14:01:08;16.90;85.50
17236;DHT22;8734;59.272;17.780;2023-05-10T14:03:37;16.80;83.80
17236;DHT22;8734;59.272;17.780;2023-05-10T14:06:07;16.70;84.00
17236;DHT22;8734;59.272;17.780;2023-05-10T14:08:35;17.00;84.90
17236;DHT22;8734;59.272;17.780;2023-05-10T14:11:04;17.20;84.70
17236;DHT22;8734;59.272;17.780;2023-05-10T14:13:32;17.00;82.00
17236;DHT22;8734;59.272;17.780;2023-05-10T14:16:01;16.80;81.30
17236;DHT22;8734;59.272;17.780;2023-05-10T14:18:29;16.70;82.70
17236;DHT22;8734;59.272;17.780;2023-05-10T14:20:58;16.70;82.70
17236;DHT22;8734;59.272;17.780;2023-05-10T14:23:27;16.70;82.30
17236;DHT22;8734;59.272;17.780;2023-05-10T14:25:55;16.50;83.00
17236;DHT22;8734;59.272;17.780;2023-05-10T14:28:24;16.50;83.20
17236;DHT22;8734;59.272;17.780;2023-05-10T14:30:52;16.60;83.00
17236;DHT22;8734;59.272;17.780;2023-05-10T14:33:21;16.60;81.70
17236;DHT22;8734;59.272;17.780;2023-05-10T14:35:49;16.60;81.80
17236;DHT22;8734;59.272;17.780;2023-05-10T14:38:19;16.60;82.30
17236;DHT22;8734;59.272;17.780;2023-05-10T14:40:47;16.60;82.40
17236;DHT22;8734;59.272;17.780;2023-05-10T14:43:15;16.50;82.30
17236;DHT22;8734;59.272;17.780;2023-05-10T14:45:44;16.40;83.00
17236;DHT22;8734;59.272;17.780;2023-05-10T14:48:13;16.40;82.50
17236;DHT22;8734;59.272;17.780;2023-05-10T14:50:45;16.30;82.80
17236;DHT22;8734;59.272;17.780;2023-05-10T14:53:13;16.30;82.90
17236;DHT22;8734;59.272;17.780;2023-05-10T14:55:43;16.20;84.10
17236;DHT22;8734;59.272;17.780;2023-05-10T14:58:11;16.20;84.50
17236;DHT22;8734;59.272;17.780;2023-05-10T15:00:40;16.30;85.80
17236;DHT22;8734;59.272;17.780;2023-05-10T15:03:09;16.30;82.60
17236;DHT22;8734;59.272;17.780;2023-05-10T15:05:38;16.20;85.20
17236;DHT22;8734;59.272;17.780;2023-05-10T15:08:06;16.10;85.90
17236;DHT22;8734;59.272;17.780;2023-05-10T15:10:36;16.10;85.60
17236;DHT22;8734;59.272;17.780;2023-05-10T15:13:06;16.10;85.70
17236;DHT22;8734;59.272;17.780;2023-05-10T15:15:34;16.20;84.60
17236;DHT22;8734;59.272;17.780;2023-05-10T15:18:02;16.10;84.40
17236;DHT22;8734;59.272;17.780;2023-05-10T15:20:31;16.10;84.80
17236;DHT22;8734;59.272;17.780;2023-05-10T15:22:59;16.00;85.80
17236;DHT22;8734;59.272;17.780;2023-05-10T15:25:28;16.00;85.80
17236;DHT22;8734;59.272;17.780;2023-05-10T15:27:56;16.10;86.90
17236;DHT22;8734;59.272;17.780;2023-05-10T15:30:26;16.00;85.20
17236;DHT22;8734;59.272;17.780;2023-05-10T15:32:54;16.20;86.30
17236;DHT22;8734;59.272;17.780;2023-05-10T15:35:22;16.10;86.10
17236;DHT22;8734;59.272;17.780;2023-05-10T15:37:51;16.10;86.90
17236;DHT22;8734;59.272;17.780;2023-05-10T15:40:19;15.90;86.80
17236;DHT22;8734;59.272;17.780;2023-05-10T15:42:47;15.90;85.90
17236;DHT22;8734;59.272;17.780;2023-05-10T15:45:15;15.80;84.90
17236;DHT22;8734;59.272;17.780;2023-05-10T15:47:47;15.90;86.50
17236;DHT22;8734;59.272;17.780;2023-05-10T15:50:15;15.80;84.90
17236;DHT22;8734;59.272;17.780;2023-05-10T15:52:44;15.60;84.80
17236;DHT22;8734;59.272;17.780;2023-05-10T15:55:12;15.70;85.40
17236;DHT22;8734;59.272;17.780;2023-05-10T15:57:41;15.60;84.70